INFORMACIÓN METAR y TAF
METAR FOR LEPP
ADDS - METARS form results

(1506 UTC 14 December 2019)
Data provider http://aviationweather.gov/metar/data/
 
METAR text: LEPP 141500Z 23009KT 190V260 9999 FEW055 14/05 Q1014
Conditions at: LEPP (PAMPLONA/NOAIN , ES) observed 1500 UTC 14 December 2019
Temperature: 14.0°C (57°F)
Dewpoint: 5.0°C (41°F) [RH = 55%]
Pressure (altimeter): 29.94 inches Hg (1014.0 mb)
Winds: from the SW (230 degrees) at 10 MPH (9 knots; 4.6 m/s)
Visibility: 6 or more miles (10+ km)
Ceiling: at least 12,000 feet AGL
Clouds: few clouds at 5500 feet AGL
Weather: no significant weather observed at this time

METAR text: LEPP 141430Z 24008KT 200V270 9999 FEW055 14/06 Q1014
Conditions at: LEPP (PAMPLONA/NOAIN , ES) observed 1430 UTC 14 December 2019
Temperature: 14.0°C (57°F)
Dewpoint: 6.0°C (43°F) [RH = 58%]
Pressure (altimeter): 29.94 inches Hg (1014.0 mb)
Winds: from the WSW (240 degrees) at 9 MPH (8 knots; 4.1 m/s)
Visibility: 6 or more miles (10+ km)
Ceiling: at least 12,000 feet AGL
Clouds: few clouds at 5500 feet AGL
Weather: no significant weather observed at this time

Forecast for: LEPP (PAMPLONA/NOAIN , ES)
Text: TAF LEPP 141400Z 1415/1515 20008KT 9999 SCT050 TX15/1415Z TN06/1507Z
Forecast period: 1500 UTC 14 December 2019 to 1500 UTC 15 December 2019
Forecast type: FROM: standard forecast or significant change
Winds: from the SSW (200 degrees) at 9 MPH (8 knots; 4.1 m/s)
Visibility: 6 or more miles 10+ km)
Ceiling: at least 12,000 feet AGL
Clouds: scattered clouds at 5000 feet AGL
Weather: no significant weather forecast for this period
Text: TEMPO 1506/1515 14011KT
Forecast period: 0600 to 1500 UTC 15 December 2019
Forecast type: TEMPORARY: The following changes expected for less than half the time period
Winds: from the SE (140 degrees) at 13 MPH (11 knots; 5.7 m/s)
Visibility: missing
Ceiling: unknown
Clouds: missing
Weather: no significant weather forecast for this period

 MAPA DE AEROPUERTO

 INFORMACIÓN DE PISTA
Pista 15 Longitud 0 ft Ancho 0 ft
Elevación 1468 ft Umbral desplazado 0 ft Rumbo de pista 0
Pista 33 Longitud 0 ft Ancho 0 ft
Elevación 1500 ft Umbral desplazado 0 ft Rumbo de pista 0
Pista 16 Longitud 7241 ft Ancho 148 ft
Elevación 1468 ft Umbral desplazado 0 ft Rumbo de pista 152
Pista 34 Longitud 7241 ft Ancho 148 ft
Elevación 1504 ft Umbral desplazado 984 ft Rumbo de pista 332

 FRECUANCIAS DEL AEROPUERTO
Tipo APP Nombre APP Frecuencia 118.2 MHZ
Tipo GND Nombre GND Frecuencia 121.7 MHZ
Tipo TWR Nombre TWR Frecuencia 118.2 MHZ

 RADIO AYUDAS DEL AEROPUERTO
Tipo NDB Nombre Pamplona Frecuencia 422 KHZ
Tipo VOR-DME Nombre Pamplona Frecuencia 113550 KHZ
Tipo VOR-DME Nombre Pamplona Frecuencia 112300 KHZ



Powered by Virtual Airlines Manager [v2.6.2]